»·PEaware :: N82806 L70-KSJC

N82806 :: L70-KSJC

FLIGHT INFORMATION

Flight Status: Arrived
Operator: Privately registered:
United States
More flights under this callsign
Pilot: Gregory A. (9731)
Aircraft: PIPER PA-34 SENECA
(PA34)
More flights by this aircraft type
Origin: L70 Agua Dulce
United States
Destination: KSJC Mineta San Jose Intl
United States
More flights between these airports :: More routes between these airports
Route: SAUGS V459 JEFFY V137 ROM V485 LICKE
File this flight plan on PilotEdge
Remarks:
Altitude:
(Current/Filed)
14,000ft
Speed:
(Current/Filed)
280kts
Departed: 14-Apr-18 01:06 PM
Arrived: 14-Apr-18 02:30 PM
Distance/Time
Traveled:
246nm/1:24
Distance/Time
To Go:
Arrived

Flight Plot

Page will automatically refresh every two minutes.

Flight plan parsing failed; only flown route is shown


Map Options




Map Legend


Flown Route
Filed Route
Departure Airport
Arrival Airport
Navaid (VOR, NDB)
Fix

Horizontal Profiles

Position Reports

Time Latitude Longitude Heading Altitude Ground
Speed
14-Apr-18 12:43 34.502313 -118.316154 54 2605ft 0kts
14-Apr-18 12:44 34.502313 -118.316154 54 2605ft 0kts
14-Apr-18 12:45 34.502313 -118.316154 54 2605ft 0kts
14-Apr-18 12:46 34.502313 -118.316154 54 2605ft 0kts
14-Apr-18 12:47 34.502313 -118.316154 54 2605ft 0kts
14-Apr-18 12:48 34.502313 -118.316154 54 2605ft 0kts
14-Apr-18 12:49 34.502313 -118.316154 54 2605ft 0kts
14-Apr-18 12:50 34.502313 -118.316154 54 2605ft 0kts
14-Apr-18 12:51 34.502313 -118.316154 54 2605ft 0kts
14-Apr-18 12:52 34.502313 -118.316154 54 2605ft 0kts
14-Apr-18 12:53 34.503004 -118.314919 324 2605ft 1kts
14-Apr-18 12:54 34.502897 -118.314826 324 2605ft 0kts
14-Apr-18 12:55 34.502897 -118.314826 324 2605ft 0kts
14-Apr-18 12:56 34.502897 -118.314826 324 2605ft 0kts
14-Apr-18 12:57 34.502897 -118.314826 324 2605ft 0kts
14-Apr-18 12:58 34.502897 -118.314826 324 2605ft 0kts
14-Apr-18 12:59 34.502897 -118.314826 324 2605ft 0kts
14-Apr-18 13:00 34.502897 -118.314826 324 2605ft 0kts
14-Apr-18 13:01 34.502897 -118.314826 324 2605ft 0kts
14-Apr-18 13:02 34.503792 -118.313545 51 2605ft 13kts
14-Apr-18 13:03 34.506143 -118.309773 52 2605ft 10kts
14-Apr-18 13:04 34.507768 -118.307096 80 2605ft 0kts
14-Apr-18 13:05 34.503652 -118.312970 230 2605ft 87kts
14-Apr-18 13:06 34.496976 -118.340694 261 3557ft 83kts
14-Apr-18 13:07 34.499667 -118.369926 266 4572ft 97kts
14-Apr-18 13:08 34.498668 -118.408933 266 5390ft 124kts
14-Apr-18 13:09 34.497165 -118.450564 266 6343ft 124kts
14-Apr-18 13:10 34.516206 -118.480042 332 7362ft 129kts
14-Apr-18 13:11 34.549187 -118.498656 330 8371ft 132kts
14-Apr-18 13:12 34.582270 -118.517981 330 9359ft 130kts
14-Apr-18 13:13 34.614823 -118.537076 330 10350ft 129kts
14-Apr-18 13:14 34.648413 -118.556766 330 11211ft 140kts
14-Apr-18 13:15 34.684721 -118.577048 336 12018ft 146kts
14-Apr-18 13:16 34.723903 -118.591560 339 12814ft 146kts
14-Apr-18 13:17 34.752232 -118.618949 281 13614ft 135kts
14-Apr-18 13:18 34.762351 -118.666672 281 13986ft 163kts
14-Apr-18 13:19 34.774706 -118.724032 281 13976ft 182kts
14-Apr-18 13:20 34.787921 -118.785698 281 13962ft 193kts
14-Apr-18 13:21 34.801585 -118.848263 288 13964ft 190kts
14-Apr-18 13:22 34.834008 -118.899658 308 13961ft 193kts
14-Apr-18 13:23 34.870320 -118.947688 309 13953ft 192kts
14-Apr-18 13:24 34.906858 -118.995578 309 13943ft 192kts
14-Apr-18 13:25 34.943144 -119.043126 309 13936ft 191kts
14-Apr-18 13:26 34.976337 -119.086672 309 13926ft 191kts
14-Apr-18 13:27 35.012435 -119.134085 309 13918ft 191kts
14-Apr-18 13:28 35.048490 -119.181507 309 13910ft 190kts
14-Apr-18 13:29 35.084619 -119.229095 309 13875ft 192kts
14-Apr-18 13:30 35.121182 -119.277305 309 13772ft 192kts
14-Apr-18 13:31 35.157196 -119.324872 309 13769ft 190kts
14-Apr-18 13:32 35.189570 -119.367698 309 13766ft 189kts
14-Apr-18 13:33 35.225285 -119.414993 309 13766ft 189kts
14-Apr-18 13:34 35.260976 -119.462332 309 13766ft 188kts
14-Apr-18 13:35 35.296510 -119.509524 309 13766ft 188kts
14-Apr-18 13:36 35.332019 -119.556750 309 13767ft 188kts
14-Apr-18 13:37 35.367570 -119.604095 308 13775ft 188kts
14-Apr-18 13:38 35.402999 -119.651345 308 13772ft 188kts
14-Apr-18 13:39 35.438433 -119.698665 308 13770ft 188kts
14-Apr-18 13:40 35.474038 -119.746280 308 13756ft 188kts
14-Apr-18 13:41 35.509725 -119.794084 308 13757ft 191kts
14-Apr-18 13:42 35.545853 -119.842523 308 13757ft 192kts
14-Apr-18 13:43 35.581847 -119.890870 308 13758ft 192kts
14-Apr-18 13:44 35.617808 -119.939251 308 13755ft 191kts
14-Apr-18 13:45 35.653025 -119.986962 307 13858ft 188kts
14-Apr-18 13:46 35.688033 -120.035112 307 13856ft 189kts
14-Apr-18 13:47 35.723106 -120.083500 307 13856ft 189kts
14-Apr-18 13:48 35.758292 -120.132131 307 13856ft 189kts
14-Apr-18 13:49 35.793345 -120.180649 307 13856ft 189kts
14-Apr-18 13:50 35.828499 -120.229381 307 13856ft 189kts
14-Apr-18 13:51 35.863494 -120.277961 307 13855ft 189kts
14-Apr-18 13:52 35.898562 -120.326733 307 13730ft 195kts
14-Apr-18 13:53 35.936182 -120.379123 308 13086ft 210kts
14-Apr-18 13:54 35.975169 -120.433426 308 12436ft 211kts
14-Apr-18 13:55 36.014496 -120.488338 309 11786ft 214kts
14-Apr-18 13:56 36.053480 -120.542870 309 11128ft 209kts
14-Apr-18 13:57 36.092255 -120.597237 309 10476ft 210kts
14-Apr-18 13:58 36.130540 -120.650794 311 9889ft 203kts
14-Apr-18 13:59 36.171170 -120.694943 318 9857ft 188kts
14-Apr-18 14:00 36.208603 -120.732734 318 9859ft 185kts
14-Apr-18 14:01 36.249325 -120.773510 318 9851ft 189kts
14-Apr-18 14:02 36.289753 -120.813949 318 9861ft 186kts
14-Apr-18 14:03 36.330164 -120.854433 318 9861ft 187kts
14-Apr-18 14:04 36.371417 -120.895810 318 9852ft 192kts
14-Apr-18 14:05 36.412359 -120.936913 318 9859ft 188kts
14-Apr-18 14:06 36.453071 -120.977870 318 9860ft 187kts
14-Apr-18 14:07 36.493597 -121.018690 318 9861ft 187kts
14-Apr-18 14:08 36.534120 -121.059561 318 9862ft 187kts
14-Apr-18 14:09 36.574775 -121.100621 318 9863ft 187kts
14-Apr-18 14:10 36.615306 -121.141615 318 9859ft 188kts
14-Apr-18 14:11 36.655840 -121.182667 318 9860ft 188kts
14-Apr-18 14:12 36.696509 -121.223914 318 9857ft 188kts
14-Apr-18 14:13 36.737036 -121.265077 318 9860ft 188kts
14-Apr-18 14:14 36.777690 -121.306423 318 9860ft 187kts
14-Apr-18 14:15 36.817977 -121.347458 318 9863ft 186kts
14-Apr-18 14:16 36.858856 -121.389175 318 9586ft 198kts
14-Apr-18 14:17 36.899520 -121.437422 307 9089ft 203kts
14-Apr-18 14:18 36.931053 -121.495027 327 8583ft 205kts
14-Apr-18 14:19 36.974332 -121.518630 324 8194ft 203kts
14-Apr-18 14:20 37.019564 -121.561344 320 7694ft 202kts
14-Apr-18 14:21 37.064023 -121.604319 320 7194ft 202kts
14-Apr-18 14:22 37.108820 -121.647595 320 6507ft 206kts
14-Apr-18 14:23 37.161022 -121.698562 319 5859ft 194kts
14-Apr-18 14:24 37.195232 -121.746018 299 5849ft 180kts
14-Apr-18 14:25 37.214561 -121.792689 306 5746ft 188kts
14-Apr-18 14:26 37.260739 -121.818650 341 5494ft 188kts
14-Apr-18 14:27 37.298702 -121.864765 310 4770ft 204kts
14-Apr-18 14:28 37.344298 -121.908460 322 1201ft 162kts
14-Apr-18 14:29 37.360120 -121.927046 317 65ft 35kts
14-Apr-18 14:30 37.361930 -121.931295 228 65ft 0kts

Navigation Log

Ident Type
Flight plan parsing failed, navigation log unavailable